createdAt,value
2023-02-11T00:00:00.101Z,11.95
2023-02-11T00:02:54.593Z,6.95
2023-02-11T00:05:57.847Z,7.72
2023-02-11T00:08:52.304Z,9.50
2023-02-11T00:11:46.718Z,7.45
2023-02-11T00:14:42.270Z,6.15
2023-02-11T00:17:36.581Z,9.05
2023-02-11T00:20:30.854Z,6.43
2023-02-11T00:23:25.136Z,5.72
2023-02-11T00:26:34.896Z,7.03
2023-02-11T00:29:29.210Z,7.15
2023-02-11T00:32:23.426Z,4.22
2023-02-11T00:35:17.933Z,8.27
2023-02-11T00:38:12.160Z,4.85
2023-02-11T00:41:06.862Z,5.78
2023-02-11T00:44:01.441Z,6.93
2023-02-11T00:46:55.800Z,5.90
2023-02-11T00:49:50.085Z,6.53
2023-02-11T00:52:44.416Z,8.68
2023-02-11T00:55:38.877Z,4.70
2023-02-11T00:58:33.561Z,3.83
2023-02-11T01:01:28.216Z,4.68
2023-02-11T01:04:22.731Z,5.00
2023-02-11T01:07:17.049Z,4.97
2023-02-11T01:10:11.780Z,6.97
2023-02-11T01:13:07.765Z,8.68
2023-02-11T01:16:02.304Z,5.70
2023-02-11T01:18:56.670Z,6.70
2023-02-11T01:21:50.890Z,7.75
2023-02-11T01:24:45.299Z,6.35
2023-02-11T01:27:39.832Z,8.13
2023-02-11T01:30:34.170Z,6.40
2023-02-11T01:33:28.528Z,5.90
2023-02-11T01:36:22.717Z,5.63
2023-02-11T01:39:17.549Z,6.82
2023-02-11T01:42:20.575Z,5.53
2023-02-11T01:45:59.482Z,8.45
2023-02-11T01:49:06.105Z,5.75
2023-02-11T01:52:12.855Z,8.33
2023-02-11T01:55:33.860Z,6.80
2023-02-11T01:58:30.421Z,7.72
2023-02-11T02:01:28.400Z,6.25
2023-02-11T02:04:25.214Z,6.10
2023-02-11T02:07:47.819Z,11.30
2023-02-11T02:10:45.984Z,5.65
2023-02-11T02:13:40.419Z,6.68
2023-02-11T02:16:38.433Z,9.00
2023-02-11T02:19:35.596Z,8.07
2023-02-11T02:26:21.103Z,6.18
2023-02-11T02:29:47.323Z,15.57
2023-02-11T02:32:52.948Z,7.55
2023-02-11T02:36:19.982Z,11.07
2023-02-11T02:39:23.341Z,8.52
2023-02-11T02:42:19.832Z,7.63
2023-02-11T02:45:15.379Z,10.38
2023-02-11T02:48:24.181Z,13.98
2023-02-11T02:51:55.077Z,5.97
2023-02-11T02:55:04.662Z,7.47
2023-02-11T02:58:21.072Z,10.38
2023-02-11T03:01:24.334Z,9.57
2023-02-11T03:05:00.322Z,8.48
2023-02-11T03:08:32.688Z,6.90
2023-02-11T03:11:27.713Z,8.63
2023-02-11T03:14:23.902Z,10.98
2023-02-11T03:17:19.569Z,5.63
2023-02-11T03:20:18.126Z,8.32
2023-02-11T03:23:50.690Z,9.05
2023-02-11T03:26:58.131Z,8.05
2023-02-11T03:30:26.851Z,6.43
2023-02-11T03:33:51.780Z,9.15
2023-02-11T03:37:23.810Z,6.50
2023-02-11T03:40:30.996Z,7.22
2023-02-11T03:43:56.587Z,7.85
2023-02-11T03:46:54.109Z,11.50
2023-02-11T03:49:51.407Z,5.47
2023-02-11T03:52:46.980Z,6.65
2023-02-11T03:55:42.401Z,5.85
2023-02-11T03:58:36.783Z,4.47
2023-02-11T04:01:31.161Z,6.38
2023-02-11T04:04:26.581Z,7.22
2023-02-11T04:07:20.835Z,7.93
2023-02-11T04:10:15.463Z,6.22
2023-02-11T04:13:09.831Z,11.70
2023-02-11T04:16:04.173Z,6.03
2023-02-11T04:18:58.924Z,9.02
2023-02-11T04:21:53.370Z,4.60
2023-02-11T04:24:47.664Z,6.43
2023-02-11T04:27:42.057Z,13.50
2023-02-11T04:30:36.472Z,6.43
2023-02-11T04:33:30.762Z,6.85
2023-02-11T04:36:25.430Z,8.75
2023-02-11T04:39:19.942Z,7.05
2023-02-11T04:42:14.363Z,7.85
2023-02-11T04:45:09.103Z,8.30
2023-02-11T04:48:06.281Z,4.88
2023-02-11T04:51:00.716Z,4.68
2023-02-11T04:53:55.065Z,4.25
2023-02-11T04:56:50.418Z,9.38
2023-02-11T04:59:44.739Z,7.20
2023-02-11T05:02:39.582Z,10.10
2023-02-11T05:05:33.977Z,7.13
2023-02-11T05:08:28.507Z,9.10
2023-02-11T05:11:24.814Z,8.18
2023-02-11T05:14:19.244Z,6.93
2023-02-11T05:17:13.478Z,7.00
2023-02-11T05:20:08.485Z,5.80
2023-02-11T05:23:02.846Z,6.72
2023-02-11T05:25:57.066Z,6.07
2023-02-11T05:28:51.400Z,8.32
2023-02-11T05:31:45.880Z,4.97
2023-02-11T05:34:40.224Z,10.13
2023-02-11T05:37:34.628Z,5.93
2023-02-11T05:40:28.905Z,6.60
2023-02-11T05:43:23.859Z,7.85
2023-02-11T05:46:18.940Z,6.55
2023-02-11T05:49:13.318Z,6.03
2023-02-11T05:52:07.699Z,7.13
2023-02-11T05:55:02.843Z,6.28
2023-02-11T05:57:57.090Z,5.03
2023-02-11T06:00:51.864Z,9.32
2023-02-11T06:03:46.285Z,7.60
2023-02-11T06:06:40.717Z,4.93
2023-02-11T06:09:34.980Z,6.25
2023-02-11T06:12:29.452Z,6.43
2023-02-11T06:15:23.640Z,6.80
2023-02-11T06:18:17.998Z,10.65
2023-02-11T06:21:13.962Z,7.43
2023-02-11T06:24:09.577Z,9.88
2023-02-11T06:27:04.668Z,8.30
2023-02-11T06:29:59.108Z,6.07
2023-02-11T06:32:54.513Z,7.72
2023-02-11T06:35:49.020Z,7.95
2023-02-11T06:38:44.147Z,8.38
2023-02-11T06:41:39.027Z,7.47
2023-02-11T06:44:33.368Z,6.38
2023-02-11T06:47:27.831Z,7.25
2023-02-11T06:50:22.199Z,7.43
2023-02-11T06:53:16.561Z,8.57
2023-02-11T06:56:14.166Z,9.70
2023-02-11T06:59:08.448Z,8.77
2023-02-11T07:02:02.792Z,5.68
2023-02-11T07:04:57.105Z,6.95
2023-02-11T07:07:51.340Z,5.30
2023-02-11T07:10:45.615Z,9.18
2023-02-11T07:13:39.822Z,5.63
2023-02-11T07:16:35.019Z,5.32
2023-02-11T07:19:29.344Z,5.90
2023-02-11T07:22:23.666Z,11.35
2023-02-11T07:25:18.240Z,5.22
2023-02-11T07:28:12.556Z,8.82
2023-02-11T07:31:22.719Z,8.05
2023-02-11T07:34:17.155Z,9.32
2023-02-11T07:37:12.157Z,5.47
2023-02-11T07:40:06.806Z,5.70
2023-02-11T07:43:03.151Z,3.83
2023-02-11T07:45:57.453Z,7.25
2023-02-11T07:48:51.874Z,5.00
2023-02-11T07:51:47.163Z,8.55
2023-02-11T07:54:41.500Z,6.00
2023-02-11T07:57:35.686Z,3.40
2023-02-11T08:00:30.017Z,7.65
2023-02-11T08:03:24.382Z,5.95
2023-02-11T08:06:21.486Z,6.68
2023-02-11T08:09:18.983Z,6.90
2023-02-11T08:12:13.470Z,6.93
2023-02-11T08:15:08.021Z,7.50
2023-02-11T08:18:02.236Z,5.35
2023-02-11T08:20:56.579Z,6.72
2023-02-11T08:23:51.107Z,7.40
2023-02-11T08:26:45.793Z,5.45
2023-02-11T08:29:40.025Z,3.38
2023-02-11T08:32:36.743Z,8.80
2023-02-11T08:35:31.095Z,8.27
2023-02-11T08:38:25.432Z,11.00
2023-02-11T08:41:20.247Z,8.20
2023-02-11T08:44:14.982Z,8.75
2023-02-11T08:47:09.570Z,9.55
2023-02-11T08:50:04.045Z,5.90
2023-02-11T08:52:58.265Z,11.55
2023-02-11T08:55:54.024Z,7.90
2023-02-11T08:58:48.679Z,8.68
2023-02-11T09:01:43.314Z,9.05
2023-02-11T09:04:37.728Z,11.43
2023-02-11T09:07:34.758Z,5.78
2023-02-11T09:10:29.076Z,14.68
2023-02-11T09:13:23.410Z,13.15
2023-02-11T09:16:23.849Z,9.07
2023-02-11T09:19:18.262Z,6.97
2023-02-11T09:22:13.491Z,11.00
2023-02-11T09:25:08.067Z,9.05
2023-02-11T09:28:02.578Z,7.80
2023-02-11T09:30:56.875Z,5.97
2023-02-11T09:33:53.611Z,8.48
2023-02-11T09:36:48.281Z,6.00
2023-02-11T09:39:42.561Z,6.25
2023-02-11T09:42:45.736Z,4.50
2023-02-11T09:45:40.072Z,9.45
2023-02-11T09:48:43.303Z,9.18
2023-02-11T09:51:53.238Z,9.23
2023-02-11T09:54:58.814Z,7.05
2023-02-11T09:57:53.334Z,4.50
2023-02-11T10:00:56.887Z,4.72
2023-02-11T10:03:57.371Z,7.05
2023-02-11T10:07:20.573Z,8.13
2023-02-11T10:10:30.015Z,6.43
2023-02-11T10:13:51.121Z,10.15
2023-02-11T10:17:32.734Z,7.72
2023-02-11T10:20:29.775Z,6.85
2023-02-11T10:23:28.350Z,4.50
2023-02-11T10:26:23.050Z,4.45
2023-02-11T10:29:29.926Z,8.25
2023-02-11T10:32:34.946Z,6.03
2023-02-11T10:35:29.364Z,5.22
2023-02-11T10:38:24.249Z,5.93
2023-02-11T10:41:41.059Z,12.07
2023-02-11T10:45:17.210Z,7.03
2023-02-11T10:48:42.263Z,5.65
2023-02-11T10:51:36.963Z,6.40
2023-02-11T10:54:31.247Z,6.47
2023-02-11T10:57:32.688Z,6.78
2023-02-11T11:00:38.067Z,9.23
2023-02-11T11:03:40.579Z,5.90
2023-02-11T11:06:36.650Z,3.85
2023-02-11T11:09:40.208Z,2.55
2023-02-11T11:12:50.034Z,5.50
2023-02-11T11:15:44.580Z,3.58
2023-02-11T11:18:38.962Z,2.85
2023-02-11T11:21:44.855Z,2.17
2023-02-11T11:24:55.311Z,2.40
2023-02-11T11:27:58.844Z,2.30
2023-02-11T11:30:56.259Z,1.38
2023-02-11T11:33:52.934Z,3.53
2023-02-11T11:36:47.609Z,2.33
2023-02-11T11:39:42.486Z,2.53
2023-02-11T11:42:39.320Z,3.60
2023-02-11T11:45:36.238Z,3.67
2023-02-11T11:51:33.809Z,1.20
2023-02-11T11:54:31.769Z,1.02
2023-02-11T11:57:31.383Z,3.97
2023-02-11T12:01:00.855Z,1.30
2023-02-11T12:03:58.403Z,2.75
2023-02-11T12:07:34.316Z,2.50
2023-02-11T12:10:40.929Z,2.92
2023-02-11T12:13:58.649Z,3.20
2023-02-11T12:17:13.076Z,2.05
2023-02-11T12:20:32.753Z,2.00
2023-02-11T12:23:45.721Z,3.22
2023-02-11T12:26:57.174Z,3.28
2023-02-11T12:30:13.124Z,4.20
2023-02-11T12:33:19.847Z,1.63
2023-02-11T12:36:29.457Z,3.30
2023-02-11T12:39:39.183Z,5.88
2023-02-11T12:43:13.033Z,1.80
2023-02-11T12:46:19.629Z,3.72
2023-02-11T12:49:26.799Z,1.90
2023-02-11T12:52:59.590Z,1.63
2023-02-11T12:56:25.776Z,1.15
2023-02-11T12:59:33.620Z,3.55
2023-02-11T13:02:45.973Z,1.52
2023-02-11T13:05:50.929Z,2.78
2023-02-11T13:09:01.838Z,3.15
2023-02-11T13:12:23.867Z,2.17
2023-02-11T13:15:18.915Z,2.85
2023-02-11T13:18:21.652Z,4.70
2023-02-11T13:21:19.165Z,4.25
2023-02-11T13:24:33.836Z,3.50
2023-02-11T13:27:44.074Z,2.03
2023-02-11T13:30:42.349Z,3.35
2023-02-11T13:33:44.601Z,2.67
2023-02-11T13:36:39.207Z,3.05
2023-02-11T13:39:33.835Z,2.28
2023-02-11T13:42:29.539Z,1.52
2023-02-11T13:45:45.331Z,3.00
2023-02-11T13:48:53.830Z,2.88
2023-02-11T13:51:49.498Z,4.07
2023-02-11T13:54:49.287Z,2.33
2023-02-11T13:57:44.595Z,2.55
2023-02-11T14:00:38.873Z,4.38
2023-02-11T14:03:54.528Z,2.92
2023-02-11T14:07:45.071Z,2.15
2023-02-11T14:10:45.719Z,1.95
2023-02-11T14:14:04.414Z,3.30
2023-02-11T14:17:02.100Z,1.95
2023-02-11T14:20:00.084Z,3.60
2023-02-11T14:22:55.841Z,0.43
2023-02-11T14:26:01.945Z,5.13
2023-02-11T14:29:02.872Z,2.67
2023-02-11T14:32:07.173Z,1.80
2023-02-11T14:35:31.263Z,3.03
2023-02-11T14:38:35.292Z,3.05
2023-02-11T14:41:33.854Z,3.38
2023-02-11T14:44:32.002Z,2.92
2023-02-11T14:47:42.031Z,2.35
2023-02-11T14:50:50.206Z,1.42
2023-02-11T14:53:53.817Z,3.10
2023-02-11T14:56:48.473Z,2.38
2023-02-11T15:00:15.598Z,4.03
2023-02-11T15:03:32.192Z,2.67
2023-02-11T15:06:50.915Z,1.50
2023-02-11T15:09:51.888Z,1.20
2023-02-11T15:12:51.253Z,2.38
2023-02-11T15:15:47.810Z,3.55
2023-02-11T15:18:45.065Z,1.55
2023-02-11T15:24:36.665Z,2.10
2023-02-11T15:27:43.300Z,1.50
2023-02-11T15:30:37.526Z,2.10
2023-02-11T15:33:33.484Z,0.52
2023-02-11T15:36:34.417Z,1.33
2023-02-11T15:39:42.321Z,2.53
2023-02-11T15:42:51.847Z,1.50
2023-02-11T15:45:55.565Z,1.50
2023-02-11T15:48:54.951Z,1.08
2023-02-11T15:51:49.640Z,0.75
2023-02-11T15:54:49.305Z,1.48
2023-02-11T15:58:02.105Z,1.98
2023-02-11T16:01:01.114Z,0.98
2023-02-11T16:03:55.547Z,1.45
2023-02-11T16:06:50.645Z,0.95
2023-02-11T16:09:45.217Z,1.58
2023-02-11T16:12:39.715Z,3.20
2023-02-11T16:15:40.843Z,1.92
2023-02-11T16:18:45.269Z,4.15
2023-02-11T16:21:46.624Z,3.75
2023-02-11T16:24:41.515Z,3.80
2023-02-11T16:27:43.222Z,3.03
2023-02-11T16:30:41.943Z,2.95
2023-02-11T16:33:36.288Z,3.65
2023-02-11T16:36:30.604Z,5.05
2023-02-11T16:39:24.907Z,6.40
2023-02-11T16:42:19.686Z,4.25
2023-02-11T16:45:14.155Z,2.90
2023-02-11T16:48:10.412Z,4.10
2023-02-11T16:51:04.960Z,4.80
2023-02-11T16:53:59.162Z,7.85
2023-02-11T16:56:53.460Z,4.15
2023-02-11T16:59:48.791Z,6.25
2023-02-11T17:02:43.195Z,3.70
2023-02-11T17:05:54.282Z,5.32
2023-02-11T17:08:49.617Z,3.75
2023-02-11T17:11:43.898Z,3.28
2023-02-11T17:14:38.155Z,4.45
2023-02-11T17:17:32.492Z,4.32
2023-02-11T17:20:27.258Z,4.18
2023-02-11T17:23:21.727Z,3.67
2023-02-11T17:26:15.923Z,8.50
2023-02-11T17:29:13.506Z,6.15
2023-02-11T17:32:08.107Z,6.10
2023-02-11T17:35:02.493Z,3.85
2023-02-11T17:37:56.826Z,3.90
2023-02-11T17:41:00.386Z,5.70
2023-02-11T17:43:54.735Z,6.78
2023-02-11T17:46:49.001Z,7.13
2023-02-11T17:49:43.779Z,5.85
2023-02-11T17:52:39.188Z,7.68
2023-02-11T17:55:37.283Z,4.25
2023-02-11T17:58:31.561Z,9.50
2023-02-11T18:01:28.596Z,4.18
2023-02-11T18:04:22.972Z,5.97
2023-02-11T18:07:17.347Z,6.03
2023-02-11T18:10:12.059Z,7.68
2023-02-11T18:13:06.372Z,7.63
2023-02-11T18:16:09.686Z,3.75
2023-02-11T18:19:04.204Z,6.38
2023-02-11T18:22:00.976Z,4.38
2023-02-11T18:24:56.771Z,5.75
2023-02-11T18:27:51.118Z,7.38
2023-02-11T18:30:45.403Z,7.85
2023-02-11T18:33:43.236Z,5.05
2023-02-11T18:36:37.873Z,4.15
2023-02-11T18:39:32.278Z,6.93
2023-02-11T18:42:26.500Z,9.02
2023-02-11T18:45:20.889Z,4.63
2023-02-11T18:48:15.833Z,9.68
2023-02-11T18:51:16.337Z,4.47
2023-02-11T18:54:10.626Z,2.92
2023-02-11T18:57:04.955Z,6.10
2023-02-11T18:59:59.201Z,7.32
2023-02-11T19:02:54.394Z,6.43
2023-02-11T19:05:51.171Z,11.15
2023-02-11T19:08:45.692Z,9.88
2023-02-11T19:11:55.431Z,7.70
2023-02-11T19:14:49.713Z,6.72
2023-02-11T19:17:44.303Z,9.27
2023-02-11T19:20:42.247Z,7.85
2023-02-11T19:23:36.975Z,7.55
2023-02-11T19:26:31.787Z,8.95
2023-02-11T19:29:26.257Z,6.05
2023-02-11T19:32:20.661Z,6.30
2023-02-11T19:35:14.933Z,10.18
2023-02-11T19:38:09.261Z,7.78
2023-02-11T19:41:03.734Z,7.28
2023-02-11T19:43:58.537Z,11.23
2023-02-11T19:46:54.594Z,7.85
2023-02-11T19:49:49.121Z,10.38
2023-02-11T19:52:43.382Z,5.78
2023-02-11T19:55:38.056Z,6.80
2023-02-11T19:58:32.350Z,9.35
2023-02-11T20:01:28.259Z,10.82
2023-02-11T20:04:22.652Z,8.65
2023-02-11T20:07:17.432Z,6.40
2023-02-11T20:10:12.025Z,7.28
2023-02-11T20:13:06.742Z,6.85
2023-02-11T20:16:06.547Z,10.40
2023-02-11T20:19:01.254Z,9.98
2023-02-11T20:21:56.884Z,7.55
2023-02-11T20:24:51.382Z,9.75
2023-02-11T20:27:45.663Z,7.53
2023-02-11T20:30:40.750Z,9.95
2023-02-11T20:33:36.202Z,10.23
2023-02-11T20:36:33.504Z,5.88
2023-02-11T20:42:22.605Z,6.75
2023-02-11T20:45:16.888Z,6.30
2023-02-11T20:48:11.137Z,10.10
2023-02-11T20:51:07.497Z,5.43
2023-02-11T20:54:02.723Z,8.50
2023-02-11T20:56:58.269Z,9.27
2023-02-11T20:59:52.654Z,8.02
2023-02-11T21:02:47.733Z,8.68
2023-02-11T21:05:41.995Z,6.75
2023-02-11T21:08:36.369Z,9.85
2023-02-11T21:11:32.419Z,8.27
2023-02-11T21:14:29.636Z,11.23
2023-02-11T21:17:23.963Z,6.70
2023-02-11T21:20:18.542Z,13.15
2023-02-11T21:23:12.852Z,9.73
2023-02-11T21:26:08.162Z,11.80
2023-02-11T21:29:02.763Z,10.25
2023-02-11T21:31:57.225Z,8.55
2023-02-11T21:34:51.599Z,12.25
2023-02-11T21:37:45.959Z,10.27
2023-02-11T21:40:40.962Z,9.20
2023-02-11T21:43:35.684Z,14.23
2023-02-11T21:46:30.394Z,8.50
2023-02-11T21:49:24.783Z,10.40
2023-02-11T21:52:19.135Z,11.05
2023-02-11T21:55:13.485Z,9.77
2023-02-11T21:58:12.542Z,12.85
2023-02-11T22:01:19.990Z,9.85
2023-02-11T22:04:14.437Z,10.70
2023-02-11T22:07:08.694Z,10.95
2023-02-11T22:10:03.009Z,11.60
2023-02-11T22:12:57.288Z,12.18
2023-02-11T22:16:00.730Z,10.65
2023-02-11T22:18:57.915Z,15.45
2023-02-11T22:21:52.260Z,11.20
2023-02-11T22:24:47.969Z,15.20
2023-02-11T22:27:42.454Z,9.18
2023-02-11T22:30:36.881Z,6.28
2023-02-11T22:33:31.369Z,11.88
2023-02-11T22:36:29.435Z,8.85
2023-02-11T22:39:23.953Z,10.48
2023-02-11T22:42:18.402Z,8.45
2023-02-11T22:45:12.878Z,11.05
2023-02-11T22:48:07.803Z,9.88
2023-02-11T22:51:11.171Z,11.27
2023-02-11T22:54:08.160Z,11.45
2023-02-11T22:57:02.701Z,8.63
2023-02-11T22:59:57.395Z,10.20
2023-02-11T23:02:52.406Z,14.02
2023-02-11T23:05:46.833Z,8.20
2023-02-11T23:08:44.814Z,9.45
2023-02-11T23:11:39.838Z,10.65
2023-02-11T23:14:34.320Z,8.77
2023-02-11T23:17:30.249Z,9.95
2023-02-11T23:20:24.775Z,9.13
2023-02-11T23:23:19.079Z,9.52
2023-02-11T23:26:15.162Z,11.57
2023-02-11T23:29:10.013Z,7.43
2023-02-11T23:32:04.753Z,7.97
2023-02-11T23:34:59.803Z,12.30
2023-02-11T23:37:55.539Z,10.93
2023-02-11T23:40:50.037Z,7.13
2023-02-11T23:43:45.742Z,9.15
2023-02-11T23:46:40.437Z,10.25
2023-02-11T23:49:34.856Z,8.85
2023-02-11T23:52:29.561Z,8.07
2023-02-11T23:55:24.216Z,7.18
2023-02-11T23:58:18.958Z,10.07
